Time;durP1;ratioP1;P1;durP2;ratioP2;P2;SDS_P1;SDS_P2;PMS_P1;PMS_P2;Temp;Humidity;BMP_temperature;BMP_pressure;BME280_temperature;BME280_humidity;BME280_pressure;Samples;Min_cycle;Max_cycle;Signal;HPM_P1;HPM_P2
2022/10/31 00:01:39;;;;;;;25.15;6.82;;;;;;;5.22;99.31;102049.41;4891656;28;20040;-59
2022/10/31 00:04:19;;;;;;;19.73;6.10;;;;;;;5.27;98.74;102053.94;4898454;28;20049;-60
2022/10/31 00:07:10;;;;;;;22.92;5.50;;;;;;;5.36;98.47;102045.56;4897311;28;20107;-60
2022/10/31 00:10:00;;;;;;;19.08;5.35;;;;;;;5.34;98.55;102013.53;4868467;28;20045;-59
2022/10/31 00:12:39;;;;;;;;;;;;;;;5.69;98.50;102047.50;4850405;28;20041;-59
2022/10/31 00:15:23;;;;;;;15.73;4.63;;;;;;;5.88;98.61;102039.47;4896144;28;19917;-60
2022/10/31 00:18:02;;;;;;;20.08;4.85;;;;;;;6.09;98.16;102034.13;4894809;28;20046;-59
2022/10/31 00:21:05;;;;;;;18.08;4.30;;;;;;;6.22;97.21;102035.38;4911503;28;20053;-60
2022/10/31 00:24:09;;;;;;;21.95;5.13;;;;;;;6.32;96.43;102021.81;4881427;28;20056;-59
2022/10/31 00:26:47;;;;;;;18.90;5.60;;;;;;;6.51;95.52;102027.53;4862489;28;20460;-60
2022/10/31 00:35:29;;;;;;;20.92;5.13;;;;;;;6.89;93.48;102026.88;4886933;28;20046;-59
2022/10/31 00:38:24;;;;;;;13.32;4.70;;;;;;;7.06;92.43;102018.63;4870641;28;20062;-60
2022/10/31 00:41:10;;;;;;;21.15;6.22;;;;;;;7.16;90.87;102025.84;4856652;28;20041;-61
2022/10/31 00:43:50;;;;;;;18.90;6.35;;;;;;;7.30;90.57;102021.00;4878160;28;20041;-60
2022/10/31 00:49:37;;;;;;;16.85;5.65;;;;;;;7.54;89.41;102018.13;4891150;28;20048;-60
2022/10/31 00:52:34;;;;;;;25.05;6.95;;;;;;;7.64;88.34;102020.13;4885799;28;20048;-60
2022/10/31 00:55:13;;;;;;;10.48;5.45;;;;;;;7.77;88.27;102022.16;4885019;28;20082;-60
2022/10/31 01:06:59;;;;;;;19.52;6.07;;;;;;;8.20;85.19;101986.66;4913971;28;20086;-60
2022/10/31 01:12:27;;;;;;;16.33;4.97;;;;;;;8.60;83.20;102008.31;4834170;28;20533;-60
2022/10/31 01:18:19;;;;;;;16.20;5.88;;;;;;;8.64;79.63;102004.94;4857201;28;20049;-60
2022/10/31 01:21:21;;;;;;;18.60;6.70;;;;;;;8.80;79.62;101995.69;4862093;28;20037;-60
2022/10/31 01:27:17;;;;;;;17.55;7.00;;;;;;;9.02;78.88;101990.88;4863317;28;20063;-60
2022/10/31 01:30:16;;;;;;;31.55;8.68;;;;;;;9.18;78.19;101992.88;4885346;28;20057;-60
2022/10/31 01:33:06;;;;;;;22.63;6.80;;;;;;;9.23;77.92;101985.13;4875854;28;20037;-60
2022/10/31 01:38:53;;;;;;;14.68;3.72;;;;;;;9.48;76.47;101975.97;4847093;28;20052;-60
2022/10/31 01:47:53;;;;;;;10.38;4.20;;;;;;;9.50;74.12;101959.47;4884796;28;20034;-60
2022/10/31 01:50:41;;;;;;;9.45;3.28;;;;;;;9.57;74.92;101943.94;4786900;28;20064;-60
2022/10/31 01:53:30;;;;;;;9.55;3.05;;;;;;;9.82;73.82;101953.84;4881820;28;20123;-60
2022/10/31 01:56:17;;;;;;;11.02;3.65;;;;;;;9.82;72.59;101951.25;4892874;28;20381;-60
2022/10/31 01:59:11;;;;;;;19.55;5.07;;;;;;;9.70;73.35;101906.69;4873128;28;20045;-59
2022/10/31 02:01:54;;;;;;;8.68;3.92;;;;;;;9.94;73.25;101945.31;4855701;28;20049;-60
2022/10/31 02:04:50;;;;;;;7.78;3.60;;;;;;;9.93;72.97;101933.09;4898881;28;20087;-59
2022/10/31 02:07:35;;;;;;;12.52;3.72;;;;;;;9.97;72.68;101934.03;4844312;28;20257;-60
2022/10/31 02:10:34;;;;;;;11.73;3.95;;;;;;;10.03;72.06;101919.28;4888548;28;20056;-60
2022/10/31 02:13:10;;;;;;;8.55;3.03;;;;;;;10.10;71.40;101925.47;4880709;28;20049;-60
2022/10/31 02:15:58;;;;;;;9.85;3.15;;;;;;;10.12;71.39;101929.88;4901096;28;20050;-59
2022/10/31 02:18:40;;;;;;;9.23;4.05;;;;;;;10.15;71.15;101926.41;4874765;28;20041;-60
2022/10/31 02:21:43;;;;;;;11.77;4.05;;;;;;;9.98;71.44;101894.00;4875416;28;20041;-60
2022/10/31 02:31:43;;;;;;;10.95;3.25;;;;;;;10.32;69.83;101905.75;4842290;28;20053;-61
2022/10/31 02:34:39;;;;;;;7.00;3.55;;;;;;;10.32;70.12;101911.84;4895936;28;20042;-60
2022/10/31 02:38:00;;;;;;;6.60;2.92;;;;;;;10.42;69.74;101907.59;4854690;28;20900;-59
2022/10/31 02:40:52;;;;;;;11.10;3.38;;;;;;;10.41;69.61;101910.19;4887511;28;20066;-60
2022/10/31 02:46:50;;;;;;;9.27;3.38;;;;;;;10.51;68.50;101904.22;4867234;28;20145;-60
2022/10/31 02:49:46;;;;;;;9.45;3.13;;;;;;;10.50;68.82;101899.84;4828732;28;20045;-59
2022/10/31 02:52:38;;;;;;;9.73;3.35;;;;;;;10.56;69.59;101892.06;4879047;28;20083;-59
2022/10/31 02:58:44;;;;;;;11.98;3.33;;;;;;;10.58;68.20;101882.47;4896605;28;20080;-60
2022/10/31 03:01:49;;;;;;;10.55;3.20;;;;;;;10.58;68.19;101879.88;4905305;28;20107;-60
2022/10/31 03:08:02;;;;;;;9.82;3.08;;;;;;;10.72;68.63;101870.41;4876436;28;20158;-60
2022/10/31 03:10:49;;;;;;;6.28;2.90;;;;;;;10.75;67.93;101870.44;4903637;28;20062;-60
2022/10/31 03:13:33;;;;;;;11.52;3.13;;;;;;;10.75;68.15;101870.44;4888447;28;20557;-60
2022/10/31 03:22:36;;;;;;;9.45;2.90;;;;;;;10.85;67.94;101870.53;4877222;28;20047;-59
2022/10/31 03:28:28;;;;;;;6.65;3.10;;;;;;;10.82;66.78;101850.47;4844786;28;20052;-60
2022/10/31 03:31:12;;;;;;;3.60;2.67;;;;;;;10.88;66.86;101845.25;4921202;28;20096;-60
2022/10/31 03:42:56;;;;;;;7.07;2.33;;;;;;;10.93;66.29;101850.53;4868072;28;20037;-60
2022/10/31 03:45:46;;;;;;;7.10;2.70;;;;;;;10.89;66.39;101848.78;4867722;28;20163;-60
2022/10/31 03:48:44;;;;;;;7.28;2.58;;;;;;;10.90;66.30;101843.53;4908099;28;20057;-60
2022/10/31 03:51:40;;;;;;;8.32;2.42;;;;;;;10.97;66.67;101844.47;4886197;28;20045;-59
2022/10/31 03:54:21;;;;;;;9.15;2.50;;;;;;;10.88;66.37;101828.69;4888750;28;20068;-60
2022/10/31 04:00:27;;;;;;;6.55;3.03;;;;;;;10.87;66.21;101811.28;4888937;28;20583;-60
2022/10/31 04:03:10;;;;;;;6.93;2.63;;;;;;;10.98;65.75;101820.06;4877675;28;20056;-60
2022/10/31 04:05:51;;;;;;;25.23;3.53;;;;;;;11.02;66.18;101830.56;4892886;28;20075;-59
2022/10/31 04:08:36;;;;;;;7.68;2.75;;;;;;;10.98;66.70;101825.28;4893458;28;20049;-59
2022/10/31 04:11:35;;;;;;;9.23;2.17;;;;;;;10.85;65.93;101792.06;4858262;28;20051;-60
2022/10/31 04:14:35;;;;;;;7.18;2.78;;;;;;;11.02;65.91;101827.06;4907637;28;20045;-60
2022/10/31 04:17:22;;;;;;;43.70;9.10;;;;;;;11.02;66.74;101832.28;4879730;28;20058;-61
2022/10/31 04:22:59;;;;;;;;;;;;;;;11.17;65.46;101827.16;4881739;28;20042;-60
2022/10/31 04:25:35;;;;;;;5.65;2.90;;;;;;;11.16;65.05;101830.66;4886197;28;19931;-59
2022/10/31 04:34:43;;;;;;;6.88;3.25;;;;;;;11.15;65.62;101823.66;4901119;28;20080;-59
2022/10/31 04:37:41;;;;;;;5.40;2.72;;;;;;;11.12;65.34;101821.03;4866154;28;20069;-60
2022/10/31 04:46:19;;;;;;;7.38;2.83;;;;;;;10.83;66.75;101814.72;4870984;28;20088;-60
2022/10/31 04:49:46;;;;;;;7.15;2.80;;;;;;;10.76;66.69;101814.69;4857513;28;20050;-61
2022/10/31 04:52:37;;;;;;;13.13;3.05;;;;;;;10.74;66.93;101811.19;4854236;28;20102;-60
2022/10/31 04:58:36;;;;;;;6.88;2.72;;;;;;;10.82;66.47;101815.59;4897099;28;20063;-59
2022/10/31 05:04:28;;;;;;;10.45;2.80;;;;;;;10.91;66.14;101818.28;4900321;28;20117;-60
2022/10/31 05:07:22;;;;;;;11.57;3.10;;;;;;;10.94;66.41;101813.06;4856495;28;20113;-59
2022/10/31 05:13:02;;;;;;;6.57;2.97;;;;;;;10.98;66.73;101800.03;4871621;28;20061;-62
2022/10/31 05:15:57;;;;;;;17.67;3.92;;;;;;;11.00;67.06;101823.56;4913256;28;20045;-61
2022/10/31 05:25:10;;;;;;;15.75;3.97;;;;;;;10.70;67.44;101825.06;4837813;28;20053;-62
2022/10/31 05:27:50;;;;;;;10.77;3.40;;;;;;;10.60;67.72;101823.25;4878132;28;20049;-62
2022/10/31 05:33:31;;;;;;;11.85;4.00;;;;;;;10.48;68.88;101817.91;4900904;28;20132;-62
2022/10/31 05:36:13;;;;;;;18.33;4.20;;;;;;;10.43;69.04;101824.84;4886625;28;20048;-61
2022/10/31 05:38:48;;;;;;;;;;;;;;;10.36;68.98;101819.56;4902484;28;20048;-62
2022/10/31 05:44:56;;;;;;;;;;;;;;;10.24;69.16;101832.47;4896916;28;20063;-61
2022/10/31 05:47:39;;;;;;;10.45;3.70;;;;;;;10.16;69.29;101831.53;4850152;28;19929;-61
2022/10/31 05:50:15;;;;;;;7.95;3.22;;;;;;;10.01;69.45;101826.13;4905128;28;20057;-61
2022/10/31 05:52:56;;;;;;;9.40;2.85;;;;;;;9.98;69.40;101831.31;4874260;28;20051;-59
2022/10/31 06:02:00;;;;;;;13.23;3.45;;;;;;;9.67;70.70;101838.78;4887606;28;20145;-61
2022/10/31 06:04:58;;;;;;;7.97;2.50;;;;;;;9.63;70.69;101834.38;4914945;28;20052;-61
2022/10/31 06:08:00;;;;;;;12.80;3.67;;;;;;;9.45;71.14;101825.47;4908627;28;20048;-61
2022/10/31 06:13:45;;;;;;;12.27;3.40;;;;;;;9.31;72.46;101837.47;4877780;28;20054;-60
2022/10/31 06:16:25;;;;;;;9.93;3.35;;;;;;;8.95;72.66;101796.94;4878781;28;20065;-62
2022/10/31 06:19:17;;;;;;;12.60;3.33;;;;;;;9.16;73.44;101837.22;4885311;28;20052;-61
2022/10/31 06:21:59;;;;;;;10.57;3.63;;;;;;;8.86;74.01;101786.38;4896275;28;20090;-62
2022/10/31 06:24:53;;;;;;;11.90;3.78;;;;;;;9.05;74.59;101830.13;4842534;28;20066;-62
2022/10/31 06:27:53;;;;;;;11.25;3.85;;;;;;;8.95;75.25;101823.00;4861645;28;20128;-62
2022/10/31 06:30:46;;;;;;;15.05;4.00;;;;;;;8.92;75.85;101838.63;4842604;28;21152;-60
2022/10/31 06:33:39;;;;;;;12.07;3.42;;;;;;;8.81;76.35;101834.94;4885757;28;20117;-61
2022/10/31 06:36:15;;;;;;;10.68;3.38;;;;;;;8.70;77.00;101836.53;4896656;28;20047;-60
2022/10/31 06:38:54;;;;;;;10.52;3.47;;;;;;;8.58;77.64;101837.19;4884281;28;20049;-60
2022/10/31 06:41:29;;;;;;;15.73;3.22;;;;;;;8.49;77.87;101827.50;4853570;28;20057;-61
2022/10/31 06:44:29;;;;;;;18.08;4.30;;;;;;;8.35;78.21;101831.53;4836752;28;20046;-61
2022/10/31 06:47:21;;;;;;;11.00;3.45;;;;;;;8.23;78.88;101828.72;4782073;28;20052;-62
2022/10/31 06:49:59;;;;;;;15.75;3.50;;;;;;;8.14;79.66;101835.50;4791274;28;20056;-60
2022/10/31 06:52:34;;;;;;;11.27;4.20;;;;;;;8.03;80.04;101825.75;4821496;28;20423;-62
2022/10/31 06:55:13;;;;;;;17.05;5.35;;;;;;;7.98;80.94;101833.47;4830217;28;20056;-61
2022/10/31 06:58:09;;;;;;;18.58;6.10;;;;;;;7.89;81.37;101822.88;4830517;28;20066;-62
2022/10/31 07:00:50;;;;;;;15.57;6.38;;;;;;;7.86;81.90;101828.00;4806864;28;20575;-62
2022/10/31 07:03:40;;;;;;;29.35;9.90;;;;;;;7.76;81.99;101830.44;4770952;28;20058;-64
2022/10/31 07:06:21;;;;;;;18.40;9.18;;;;;;;7.68;82.73;101834.59;4802134;28;20187;-62
2022/10/31 07:09:12;;;;;;;26.02;11.07;;;;;;;6.88;82.92;101713.28;4806516;28;20152;-62
2022/10/31 07:11:59;;;;;;;19.63;7.82;;;;;;;7.19;83.66;101786.75;4828080;28;20050;-61
2022/10/31 07:14:40;;;;;;;17.02;6.68;;;;;;;7.39;84.43;101828.81;4817356;28;21561;-62
2022/10/31 07:17:18;;;;;;;13.10;5.20;;;;;;;7.35;85.07;101835.63;4825688;28;20310;-61
2022/10/31 07:20:11;;;;;;;13.48;5.00;;;;;;;7.27;85.34;101832.00;4875521;28;20036;-61
2022/10/31 07:23:02;;;;;;;11.70;3.72;;;;;;;7.22;85.92;101828.41;4845823;28;20045;-61
2022/10/31 07:28:31;;;;;;;8.13;3.65;;;;;;;6.32;86.57;101710.28;4895947;28;20053;-62
2022/10/31 07:31:14;;;;;;;10.13;3.40;;;;;;;6.95;87.11;101832.97;4905410;28;20052;-62
2022/10/31 07:33:56;;;;;;;12.60;3.85;;;;;;;6.90;87.62;101831.16;4863247;28;20314;-62
2022/10/31 07:36:47;;;;;;;8.93;3.23;;;;;;;6.84;87.71;101828.41;4897713;28;20053;-61
2022/10/31 07:39:37;;;;;;;9.93;3.90;;;;;;;6.82;87.97;101830.09;4867678;28;20045;-62
2022/10/31 07:42:15;;;;;;;10.45;3.67;;;;;;;6.76;88.15;101826.47;4868658;28;20077;-61
2022/10/31 07:44:55;;;;;;;13.25;3.60;;;;;;;6.66;88.65;101827.94;4857896;28;20050;-62
2022/10/31 07:47:47;;;;;;;11.15;3.30;;;;;;;6.67;89.36;101827.13;4892183;28;20057;-61
2022/10/31 07:53:38;;;;;;;9.30;3.50;;;;;;;6.64;90.23;101837.41;4872335;28;20072;-61
2022/10/31 07:56:30;;;;;;;11.30;3.42;;;;;;;6.64;90.70;101834.81;4871372;28;20049;-62
2022/10/31 07:59:08;;;;;;;13.20;3.75;;;;;;;6.65;91.31;101828.81;4887868;28;21283;-62
2022/10/31 08:01:52;;;;;;;12.88;4.15;;;;;;;6.61;91.18;101826.97;4815826;28;20047;-62
2022/10/31 08:07:41;;;;;;;11.07;3.45;;;;;;;6.58;92.13;101832.09;4887480;28;20112;-62
2022/10/31 08:14:15;;;;;;;10.68;3.05;;;;;;;6.63;93.57;101835.66;4866336;28;20041;-62
2022/10/31 08:17:40;;;;;;;11.07;3.65;;;;;;;6.68;94.05;101844.44;4862361;28;20051;-61
2022/10/31 08:20:54;;;;;;;13.20;4.10;;;;;;;6.74;94.25;101839.44;4899697;28;20212;-62
2022/10/31 08:24:10;;;;;;;9.88;3.92;;;;;;;6.81;94.80;101841.31;4871020;28;20112;-62
2022/10/31 08:27:43;;;;;;;13.88;3.60;;;;;;;6.84;94.56;101838.81;4888790;28;20084;-62
2022/10/31 08:34:28;;;;;;;10.63;3.83;;;;;;;6.87;94.99;101833.69;4872834;28;20045;-62
2022/10/31 08:37:54;;;;;;;9.93;3.58;;;;;;;6.88;95.05;101827.63;4885380;28;20191;-62
2022/10/31 08:41:15;;;;;;;12.07;4.65;;;;;;;6.87;95.37;101825.88;4865757;28;20058;-61
2022/10/31 08:44:27;;;;;;;11.85;4.43;;;;;;;6.91;95.41;101835.53;4885092;28;20053;-62
2022/10/31 08:47:38;;;;;;;12.18;4.55;;;;;;;6.94;95.76;101836.41;4885549;28;20045;-62
2022/10/31 08:50:51;;;;;;;18.45;4.50;;;;;;;6.97;95.86;101841.69;4890775;28;20072;-62
2022/10/31 08:54:18;;;;;;;13.55;4.07;;;;;;;6.98;95.80;101848.63;4891452;28;20046;-62
2022/10/31 08:57:41;;;;;;;15.57;4.70;;;;;;;7.02;95.70;101848.75;4886875;28;20066;-61
2022/10/31 09:04:19;;;;;;;14.10;5.10;;;;;;;6.82;95.37;101808.44;4874271;28;20053;-61
2022/10/31 09:07:21;;;;;;;9.27;4.45;;;;;;;7.05;95.71;101848.81;4855471;28;20377;-62
2022/10/31 09:10:00;;;;;;;11.68;4.85;;;;;;;7.05;95.72;101850.56;4899302;28;20061;-61
2022/10/31 09:13:06;;;;;;;12.15;4.60;;;;;;;7.06;95.87;101841.91;4848906;28;20071;-62
2022/10/31 09:16:03;;;;;;;13.75;5.00;;;;;;;7.07;96.02;101843.66;4853184;28;20830;-61
2022/10/31 09:18:49;;;;;;;10.02;4.03;;;;;;;6.61;95.83;101764.63;4882333;28;20057;-62
2022/10/31 09:27:45;;;;;;;9.23;5.03;;;;;;;7.06;96.09;101852.28;4891476;28;20469;-61
2022/10/31 09:30:30;;;;;;;14.07;4.32;;;;;;;7.09;95.98;101842.00;4886732;28;20060;-62
2022/10/31 09:33:09;;;;;;;13.15;5.50;;;;;;;7.11;95.70;101851.59;4895428;28;20126;-61
2022/10/31 09:35:52;;;;;;;12.10;4.20;;;;;;;7.10;95.33;101846.34;4901266;28;20079;-61
2022/10/31 09:38:49;;;;;;;12.77;4.47;;;;;;;7.15;95.33;101852.50;4902687;28;20076;-61
2022/10/31 09:42:10;;;;;;;13.00;4.75;;;;;;;7.15;95.26;101851.66;4857744;28;20038;-61
2022/10/31 09:45:03;;;;;;;15.90;4.75;;;;;;;6.90;95.31;101815.56;4894732;28;20532;-61
2022/10/31 09:48:09;;;;;;;7.43;4.57;;;;;;;7.16;95.50;101854.25;4869275;28;20395;-61
2022/10/31 09:50:50;;;;;;;13.32;5.10;;;;;;;7.16;95.62;101859.47;4879492;28;20050;-61
2022/10/31 09:53:34;;;;;;;12.27;4.55;;;;;;;7.15;95.62;101856.84;4887087;28;20043;-65
2022/10/31 09:56:21;;;;;;;16.00;4.45;;;;;;;7.13;95.75;101851.59;4874142;28;20041;-63
2022/10/31 09:59:25;;;;;;;10.55;4.78;;;;;;;7.10;95.61;101846.34;4891713;28;20056;-62
2022/10/31 10:02:22;;;;;;;16.55;4.82;;;;;;;7.17;95.42;101863.84;4892400;28;20072;-62
2022/10/31 10:05:09;;;;;;;21.13;4.57;;;;;;;7.13;95.45;101864.59;4890142;28;20045;-61
2022/10/31 10:07:53;;;;;;;11.48;4.57;;;;;;;7.05;95.35;101840.16;4892969;28;20113;-61
2022/10/31 10:11:27;;;;;;;15.30;4.45;;;;;;;7.10;95.43;101854.13;4897665;28;20049;-60
2022/10/31 10:14:29;;;;;;;13.30;4.45;;;;;;;7.01;95.13;101846.09;4847332;28;20072;-61
2022/10/31 10:18:00;;;;;;;;;;;;;;;;;;;;;
2022/10/31 10:24:43;;;;;;;15.88;4.47;;;;;;;6.95;95.74;101851.19;4877902;28;20057;-60
2022/10/31 10:27:53;;;;;;;12.65;4.50;;;;;;;6.91;95.75;101845.91;4771710;28;20053;-60
2022/10/31 10:30:52;;;;;;;13.48;4.15;;;;;;;6.91;96.05;101848.50;4894450;28;20045;-61
2022/10/31 10:37:53;;;;;;;11.55;4.40;;;;;;;6.79;96.04;101837.81;4827647;28;20135;-61
2022/10/31 10:40:42;;;;;;;15.95;4.63;;;;;;;6.77;96.02;101834.31;4860107;28;20088;-61
2022/10/31 10:47:51;;;;;;;15.20;5.18;;;;;;;6.70;96.32;101828.06;4784562;28;20076;-61
2022/10/31 10:50:44;;;;;;;11.60;4.43;;;;;;;6.65;96.30;101828.81;4837438;28;20113;-61
2022/10/31 11:03:25;;;;;;;10.55;4.30;;;;;;;6.32;96.63;101772.59;4853322;28;20069;-62
2022/10/31 11:10:12;;;;;;;18.13;4.80;;;;;;;6.57;96.85;101819.94;4790222;28;20083;-61
2022/10/31 11:13:40;;;;;;;12.65;4.10;;;;;;;6.56;96.64;101829.44;4969678;27;20367;-61
2022/10/31 11:16:37;;;;;;;7.93;4.20;;;;;;;6.50;96.43;101823.22;4968801;27;20051;-61
2022/10/31 11:19:31;;;;;;;9.98;3.45;;;;;;;6.24;96.79;101784.47;4927928;28;20051;-61
2022/10/31 11:25:26;;;;;;;9.95;4.00;;;;;;;6.48;97.01;101818.84;4959104;27;20282;-61
2022/10/31 11:28:18;;;;;;;10.85;3.70;;;;;;;6.45;96.74;101821.38;4953502;28;20048;-61
2022/10/31 11:31:37;;;;;;;16.15;4.13;;;;;;;6.40;96.96;101811.72;4983359;27;20061;-61
2022/10/31 11:34:52;;;;;;;;;;;;;;;;;;;;;
2022/10/31 11:37:42;;;;;;;14.88;3.80;;;;;;;6.42;97.42;101816.13;4874776;28;20047;-61
2022/10/31 11:40:40;;;;;;;13.57;4.43;;;;;;;5.88;97.58;101722.97;4955245;28;20142;-61
2022/10/31 11:43:31;;;;;;;13.32;4.32;;;;;;;6.51;97.56;101819.78;4958539;28;20180;-62
2022/10/31 11:53:14;;;;;;;11.40;3.72;;;;;;;6.57;97.96;101813.03;4843283;28;20050;-60
2022/10/31 11:56:22;;;;;;;14.13;4.85;;;;;;;6.60;98.02;101813.09;4858918;28;20387;-61
2022/10/31 11:59:30;;;;;;;14.15;4.03;;;;;;;6.66;98.00;101814.97;4881980;28;20050;-61
2022/10/31 12:02:36;;;;;;;10.13;4.30;;;;;;;6.71;97.92;101810.75;4875285;28;20084;-61
2022/10/31 12:05:42;;;;;;;10.63;3.78;;;;;;;6.70;98.08;101812.47;4867994;28;20041;-61
2022/10/31 12:16:28;;;;;;;16.95;5.22;;;;;;;6.72;97.96;101799.53;4624302;30;20051;-61
2022/10/31 12:19:42;;;;;;;11.57;4.60;;;;;;;6.72;98.18;101801.28;4629008;30;20329;-61
2022/10/31 12:22:39;;;;;;;13.43;4.05;;;;;;;6.74;98.38;101802.16;4611081;30;20049;-61
2022/10/31 12:25:57;;;;;;;7.88;3.58;;;;;;;6.78;98.39;101798.81;4610651;30;20119;-62
2022/10/31 12:29:21;;;;;;;13.95;4.40;;;;;;;6.80;98.20;101798.00;4580408;30;20051;-62
2022/10/31 12:36:21;;;;;;;11.13;4.10;;;;;;;6.79;98.08;101796.25;4580360;30;20745;-62
2022/10/31 12:43:30;;;;;;;14.20;4.05;;;;;;;6.70;98.01;101793.41;4622218;30;20098;-61
2022/10/31 12:46:26;;;;;;;11.85;3.45;;;;;;;6.64;97.81;101788.06;4667711;29;20074;-61
2022/10/31 12:49:57;;;;;;;10.52;3.50;;;;;;;6.72;97.62;101791.75;4764196;28;20039;-63
2022/10/31 12:53:15;;;;;;;9.60;3.80;;;;;;;6.71;97.21;101787.38;4810989;28;20497;-62
2022/10/31 12:56:15;;;;;;;13.52;3.40;;;;;;;6.73;97.20;101779.63;4783438;29;20059;-61
2022/10/31 12:59:21;;;;;;;12.65;4.03;;;;;;;6.70;97.04;101789.09;4802083;28;20074;-62
2022/10/31 13:02:10;;;;;;;15.07;4.35;;;;;;;6.72;97.19;101783.94;4830466;28;20111;-62
2022/10/31 13:05:24;;;;;;;10.75;3.90;;;;;;;6.63;97.62;101762.94;4830754;28;20047;-62
2022/10/31 13:08:05;;;;;;;10.02;3.42;;;;;;;6.48;97.58;101743.56;4816184;28;20055;-62
2022/10/31 13:11:10;;;;;;;9.27;3.70;;;;;;;6.68;97.56;101771.72;4826648;28;20114;-62
2022/10/31 13:14:09;;;;;;;10.82;3.63;;;;;;;6.60;97.37;101773.28;4841617;28;20062;-62
2022/10/31 13:19:48;;;;;;;10.38;3.20;;;;;;;6.45;97.22;101759.06;4877439;28;20042;-61
2022/10/31 13:22:46;;;;;;;9.95;3.40;;;;;;;6.38;96.85;101759.75;4895647;28;20045;-61
2022/10/31 13:25:53;;;;;;;10.40;3.78;;;;;;;6.33;97.01;101753.56;4860123;28;20045;-61
2022/10/31 13:28:38;;;;;;;12.70;3.90;;;;;;;6.03;97.15;101701.78;4874665;28;20079;-61
2022/10/31 13:31:30;;;;;;;9.93;3.50;;;;;;;6.29;97.30;101746.56;4911388;28;20075;-59
2022/10/31 13:37:32;;;;;;;9.93;3.92;;;;;;;6.26;97.66;101755.16;4880674;28;20064;-62
2022/10/31 13:40:34;;;;;;;12.32;3.67;;;;;;;6.19;97.71;101744.53;4847974;28;20044;-62
2022/10/31 13:43:34;;;;;;;10.75;3.88;;;;;;;6.20;98.06;101741.13;4840032;28;20041;-63
2022/10/31 13:46:38;;;;;;;14.35;3.65;;;;;;;6.19;97.78;101728.97;4856999;28;20268;-62
2022/10/31 13:49:45;;;;;;;14.95;3.88;;;;;;;6.08;97.81;101717.47;4892142;28;20050;-61
2022/10/31 13:52:39;;;;;;;9.00;3.22;;;;;;;6.10;97.62;101728.75;4889237;28;20049;-62
2022/10/31 13:55:42;;;;;;;16.45;3.50;;;;;;;5.42;97.95;101607.69;4878424;28;20067;-61
2022/10/31 14:02:24;;;;;;;10.25;4.00;;;;;;;6.00;97.69;101718.13;4820584;28;20047;-61
2022/10/31 14:05:13;;;;;;;13.55;4.88;;;;;;;5.92;97.48;101714.44;4803421;28;20403;-62
2022/10/31 14:07:52;;;;;;;16.98;8.18;;;;;;;5.69;96.58;101715.53;4818719;28;20059;-62
2022/10/31 14:10:35;;;;;;;14.52;7.82;;;;;;;5.39;97.20;101706.09;4786234;28;20043;-62
2022/10/31 14:13:25;;;;;;;21.73;9.40;;;;;;;5.02;97.32;101667.88;4810903;28;20052;-62
2022/10/31 14:16:37;;;;;;;;;;;;;;;;;;;;;
2022/10/31 14:19:22;;;;;;;15.45;8.23;;;;;;;4.99;97.84;101689.41;4781706;28;20067;-62
2022/10/31 14:22:09;;;;;;;12.05;7.45;;;;;;;5.02;97.93;101707.66;4833436;28;20301;-62
2022/10/31 14:25:02;;;;;;;16.02;8.20;;;;;;;4.98;98.17;101703.19;4789749;28;20071;-62
2022/10/31 14:27:56;;;;;;;15.38;7.03;;;;;;;4.90;98.38;101696.91;4783882;28;20056;-62
2022/10/31 14:33:34;;;;;;;26.50;8.73;;;;;;;4.69;98.79;101695.44;4807878;28;20590;-62
2022/10/31 14:36:41;;;;;;;65.72;9.50;;;;;;;4.56;98.40;101698.47;4806460;28;20334;-62
2022/10/31 14:39:29;;;;;;;78.90;10.80;;;;;;;4.42;98.69;101694.56;4874771;28;20080;-63
2022/10/31 14:42:38;;;;;;;66.65;10.18;;;;;;;4.33;98.82;101696.03;4879510;28;20412;-62
2022/10/31 14:45:38;;;;;;;85.97;10.68;;;;;;;4.32;99.04;101699.47;4880658;28;21840;-62
2022/10/31 14:51:47;;;;;;;63.40;9.85;;;;;;;4.36;100.00;101696.97;4896803;28;20075;-62
2022/10/31 14:54:44;;;;;;;70.45;9.70;;;;;;;4.41;100.00;101692.81;4875464;28;20040;-61
2022/10/31 14:57:30;;;;;;;94.93;11.40;;;;;;;4.48;100.00;101697.34;4879977;28;20053;-65
2022/10/31 15:00:10;;;;;;;26.48;8.77;;;;;;;4.25;100.00;101645.75;4867659;28;20573;-63
2022/10/31 15:03:07;;;;;;;32.75;9.38;;;;;;;4.57;100.00;101695.06;4901276;28;20060;-62
2022/10/31 15:05:56;;;;;;;29.75;9.35;;;;;;;4.60;100.00;101689.09;4847525;28;20053;-62
2022/10/31 15:08:51;;;;;;;71.60;10.82;;;;;;;4.65;100.00;101693.59;4879873;28;20105;-62
2022/10/31 15:14:41;;;;;;;58.10;10.82;;;;;;;4.65;100.00;101688.41;4873904;28;20038;-61
2022/10/31 15:17:18;;;;;;;43.53;10.60;;;;;;;4.65;100.00;101693.59;4863643;28;20096;-62
2022/10/31 15:20:12;;;;;;;47.05;9.35;;;;;;;4.68;100.00;101693.66;4888850;28;20056;-61
2022/10/31 15:22:50;;;;;;;36.42;9.52;;;;;;;4.41;100.00;101625.53;4899638;28;20081;-61
2022/10/31 15:25:24;;;;;;;61.55;11.18;;;;;;;4.70;100.00;101671.28;4880403;28;20053;-62
2022/10/31 15:31:06;;;;;;;194.95;19.45;;;;;;;4.64;100.00;101671.13;4876916;28;20068;-61
2022/10/31 15:33:57;;;;;;;27.42;10.13;;;;;;;4.68;100.00;101670.38;4884063;28;20042;-61
2022/10/31 15:36:35;;;;;;;41.45;11.10;;;;;;;4.67;100.00;101666.03;4877709;28;20407;-61
2022/10/31 15:39:24;;;;;;;39.80;10.55;;;;;;;4.67;100.00;101675.53;4880147;28;20050;-61
2022/10/31 15:42:06;;;;;;;52.05;11.00;;;;;;;4.67;100.00;101666.03;4881328;28;20054;-61
2022/10/31 15:45:04;;;;;;;72.75;11.93;;;;;;;4.65;100.00;101672.88;4872245;28;20034;-61
2022/10/31 15:48:01;;;;;;;74.72;11.45;;;;;;;4.69;100.00;101674.72;4874784;28;20067;-61
2022/10/31 15:50:59;;;;;;;109.57;13.38;;;;;;;4.74;100.00;101678.34;4888839;28;20066;-61
2022/10/31 15:53:54;;;;;;;93.47;13.50;;;;;;;4.58;100.00;101639.84;4869224;28;20379;-61
2022/10/31 15:56:54;;;;;;;54.00;11.77;;;;;;;4.80;100.00;101661.22;4894806;28;20045;-61
2022/10/31 15:59:53;;;;;;;184.32;16.15;;;;;;;4.88;100.00;101670.09;4889558;28;20078;-61
2022/10/31 16:02:38;;;;;;;141.10;12.55;;;;;;;4.82;100.00;101667.28;4902560;28;20121;-61
2022/10/31 16:05:25;;;;;;;133.82;14.48;;;;;;;4.75;100.00;101656.78;4892653;28;20060;-61
2022/10/31 16:08:07;;;;;;;120.80;14.07;;;;;;;4.81;100.00;101668.16;4881826;28;20099;-60
2022/10/31 16:10:59;;;;;;;57.15;12.23;;;;;;;4.84;100.00;101668.22;4899096;28;20084;-62
2022/10/31 16:14:04;;;;;;;82.15;14.80;;;;;;;4.89;100.00;101669.25;4881647;28;20049;-61
2022/10/31 16:17:06;;;;;;;121.22;12.73;;;;;;;4.90;100.00;101664.13;4910498;28;20062;-61
2022/10/31 16:19:58;;;;;;;51.60;10.70;;;;;;;5.01;100.00;101669.59;4838561;28;20462;-61
2022/10/31 16:22:58;;;;;;;49.25;11.68;;;;;;;4.98;100.00;101648.78;4921867;28;20077;-61
2022/10/31 16:25:47;;;;;;;63.05;13.63;;;;;;;5.01;100.00;101651.47;4856295;28;20377;-60
2022/10/31 16:28:26;;;;;;;62.72;14.18;;;;;;;5.00;100.00;101654.03;4885555;28;20052;-61
2022/10/31 16:31:42;;;;;;;41.65;13.52;;;;;;;5.01;100.00;101640.22;4897630;28;20116;-61
2022/10/31 16:34:24;;;;;;;20.70;10.27;;;;;;;5.04;100.00;101628.25;4922940;28;20041;-61
2022/10/31 16:40:13;;;;;;;23.67;11.48;;;;;;;5.22;100.00;101650.31;4904353;28;20064;-60
2022/10/31 16:43:18;;;;;;;18.35;9.75;;;;;;;5.22;100.00;101634.75;4912447;28;20059;-61
2022/10/31 16:45:59;;;;;;;23.60;10.68;;;;;;;5.28;100.00;101634.94;4886061;28;20054;-60
2022/10/31 16:52:09;;;;;;;22.48;10.80;;;;;;;5.36;100.00;101636.88;4900142;28;20060;-60
2022/10/31 16:54:45;;;;;;;18.85;9.45;;;;;;;5.38;100.00;101631.75;4889659;28;20071;-61
2022/10/31 16:57:22;;;;;;;21.80;12.15;;;;;;;5.38;100.00;101627.44;4858194;28;20231;-62
2022/10/31 17:00:21;;;;;;;22.95;10.25;;;;;;;5.41;100.00;101631.84;4841429;28;20041;-61
2022/10/31 17:03:15;;;;;;;23.10;10.43;;;;;;;5.45;100.00;101612.94;4896211;28;20051;-61
2022/10/31 17:06:03;;;;;;;20.88;10.15;;;;;;;5.52;100.00;101614.88;4890458;28;20071;-61
2022/10/31 17:09:04;;;;;;;19.63;9.32;;;;;;;5.59;100.00;101611.59;4878790;28;20064;-61
2022/10/31 17:12:10;;;;;;;21.67;10.07;;;;;;;5.57;100.00;101597.72;4878327;28;20052;-61
2022/10/31 17:15:07;;;;;;;18.98;9.75;;;;;;;5.70;100.00;101613.56;4928589;28;20115;-60